sensor_id;sensor_type;location;lat;lon;timestamp;pressure;altitude;pressure_sealevel;temperature;humidity
57114;BME280;42994;51.606;9.988;2022-09-09T00:02:08;98562.34;;;12.60;100.00
57114;BME280;42994;51.606;9.988;2022-09-09T00:04:41;98558.84;;;12.60;100.00
57114;BME280;42994;51.606;9.988;2022-09-09T00:07:13;98566.91;;;12.60;100.00
57114;BME280;42994;51.606;9.988;2022-09-09T00:09:45;98557.75;;;12.67;100.00
57114;BME280;42994;51.606;9.988;2022-09-09T00:12:19;98555.09;;;12.61;100.00
57114;BME280;42994;51.606;9.988;2022-09-09T00:14:55;98558.41;;;12.63;100.00
57114;BME280;42994;51.606;9.988;2022-09-09T00:17:33;98552.41;;;12.61;100.00
57114;BME280;42994;51.606;9.988;2022-09-09T00:20:09;98553.06;;;12.56;100.00
57114;BME280;42994;51.606;9.988;2022-09-09T00:22:40;98557.41;;;12.57;100.00
57114;BME280;42994;51.606;9.988;2022-09-09T00:25:14;98557.97;;;12.66;100.00
57114;BME280;42994;51.606;9.988;2022-09-09T00:27:48;98556.16;;;12.60;100.00
57114;BME280;42994;51.606;9.988;2022-09-09T00:30:19;98552.91;;;12.51;100.00
57114;BME280;42994;51.606;9.988;2022-09-09T00:32:49;98556.59;;;12.50;100.00
57114;BME280;42994;51.606;9.988;2022-09-09T00:35:18;98559.25;;;12.63;100.00
57114;BME280;42994;51.606;9.988;2022-09-09T00:37:50;98556.59;;;12.57;100.00
57114;BME280;42994;51.606;9.988;2022-09-09T00:40:24;98560.75;;;12.53;100.00
57114;BME280;42994;51.606;9.988;2022-09-09T00:43:06;98555.38;;;12.53;100.00
57114;BME280;42994;51.606;9.988;2022-09-09T00:45:56;98549.41;;;12.44;100.00
57114;BME280;42994;51.606;9.988;2022-09-09T00:48:31;98549.13;;;12.59;100.00
57114;BME280;42994;51.606;9.988;2022-09-09T00:51:09;98546.63;;;12.57;100.00
57114;BME280;42994;51.606;9.988;2022-09-09T00:53:59;98555.16;;;12.54;100.00
57114;BME280;42994;51.606;9.988;2022-09-09T00:56:37;98544.66;;;12.39;100.00
57114;BME280;42994;51.606;9.988;2022-09-09T00:59:18;98547.81;;;12.29;100.00
57114;BME280;42994;51.606;9.988;2022-09-09T01:01:45;98553.59;;;12.33;100.00
57114;BME280;42994;51.606;9.988;2022-09-09T01:04:16;98552.13;;;12.37;100.00
57114;BME280;42994;51.606;9.988;2022-09-09T01:06:53;98553.19;;;12.36;100.00
57114;BME280;42994;51.606;9.988;2022-09-09T01:09:24;98554.25;;;12.28;100.00
57114;BME280;42994;51.606;9.988;2022-09-09T01:11:58;98563.31;;;12.34;100.00
57114;BME280;42994;51.606;9.988;2022-09-09T01:14:39;98559.84;;;12.27;100.00
57114;BME280;42994;51.606;9.988;2022-09-09T01:17:11;98562.06;;;12.37;100.00
57114;BME280;42994;51.606;9.988;2022-09-09T01:19:50;98555.50;;;12.26;100.00
57114;BME280;42994;51.606;9.988;2022-09-09T01:22:28;98562.53;;;12.27;100.00
57114;BME280;42994;51.606;9.988;2022-09-09T01:28:09;98568.09;;;12.32;100.00
57114;BME280;42994;51.606;9.988;2022-09-09T01:30:39;98567.44;;;12.37;100.00
57114;BME280;42994;51.606;9.988;2022-09-09T01:33:13;98564.78;;;12.30;100.00
57114;BME280;42994;51.606;9.988;2022-09-09T01:35:46;98570.34;;;12.35;100.00
57114;BME280;42994;51.606;9.988;2022-09-09T01:38:17;98571.41;;;12.27;100.00
57114;BME280;42994;51.606;9.988;2022-09-09T01:40:46;98564.13;;;12.35;100.00
57114;BME280;42994;51.606;9.988;2022-09-09T01:43:15;98567.91;;;12.27;100.00
57114;BME280;42994;51.606;9.988;2022-09-09T01:45:42;98565.84;;;12.22;100.00
57114;BME280;42994;51.606;9.988;2022-09-09T01:48:09;98562.09;;;12.30;100.00
57114;BME280;42994;51.606;9.988;2022-09-09T01:50:45;98568.75;;;12.21;100.00
57114;BME280;42994;51.606;9.988;2022-09-09T01:53:13;98564.97;;;12.35;100.00
57114;BME280;42994;51.606;9.988;2022-09-09T01:55:45;98555.88;;;12.36;100.00
57114;BME280;42994;51.606;9.988;2022-09-09T01:58:27;98558.56;;;12.29;100.00
57114;BME280;42994;51.606;9.988;2022-09-09T02:01:02;98564.34;;;12.33;100.00
57114;BME280;42994;51.606;9.988;2022-09-09T02:03:35;98559.84;;;12.27;100.00
57114;BME280;42994;51.606;9.988;2022-09-09T02:06:25;98558.66;;;12.16;100.00
57114;BME280;42994;51.606;9.988;2022-09-09T02:08:59;98559.47;;;12.17;100.00
57114;BME280;42994;51.606;9.988;2022-09-09T02:11:28;98561.13;;;12.18;100.00
57114;BME280;42994;51.606;9.988;2022-09-09T02:14:12;98556.97;;;12.22;100.00
57114;BME280;42994;51.606;9.988;2022-09-09T02:16:47;98552.78;;;12.33;100.00
57114;BME280;42994;51.606;9.988;2022-09-09T02:19:19;98550.09;;;12.33;100.00
57114;BME280;42994;51.606;9.988;2022-09-09T02:22:10;98546.75;;;12.37;100.00
57114;BME280;42994;51.606;9.988;2022-09-09T02:24:39;98550.03;;;12.46;100.00
57114;BME280;42994;51.606;9.988;2022-09-09T02:27:15;98556.16;;;12.60;100.00
57114;BME280;42994;51.606;9.988;2022-09-09T02:29:45;98554.97;;;12.49;100.00
57114;BME280;42994;51.606;9.988;2022-09-09T02:32:16;98560.78;;;12.46;100.00
57114;BME280;42994;51.606;9.988;2022-09-09T02:34:46;98561.59;;;12.46;100.00
57114;BME280;42994;51.606;9.988;2022-09-09T02:37:16;98556.66;;;12.43;100.00
57114;BME280;42994;51.606;9.988;2022-09-09T02:39:48;98555.00;;;12.42;100.00
57114;BME280;42994;51.606;9.988;2022-09-09T02:42:18;98556.41;;;12.52;100.00
57114;BME280;42994;51.606;9.988;2022-09-09T02:44:46;98554.31;;;12.54;100.00
57114;BME280;42994;51.606;9.988;2022-09-09T02:47:25;98547.31;;;12.53;100.00
57114;BME280;42994;51.606;9.988;2022-09-09T02:50:00;98551.63;;;12.54;100.00
57114;BME280;42994;51.606;9.988;2022-09-09T02:52:38;98554.53;;;12.52;100.00
57114;BME280;42994;51.606;9.988;2022-09-09T02:55:14;98554.09;;;12.55;100.00
57114;BME280;42994;51.606;9.988;2022-09-09T02:57:47;98553.06;;;12.56;100.00
57114;BME280;42994;51.606;9.988;2022-09-09T03:00:22;98545.81;;;12.57;100.00
57114;BME280;42994;51.606;9.988;2022-09-09T03:02:50;98549.16;;;12.52;100.00
57114;BME280;42994;51.606;9.988;2022-09-09T03:05:17;98545.00;;;12.56;100.00
57114;BME280;42994;51.606;9.988;2022-09-09T03:07:44;98545.22;;;12.55;100.00
57114;BME280;42994;51.606;9.988;2022-09-09T03:10:10;98541.09;;;12.52;100.00
57114;BME280;42994;51.606;9.988;2022-09-09T03:12:37;98548.00;;;12.41;100.00
57114;BME280;42994;51.606;9.988;2022-09-09T03:15:05;98547.34;;;12.39;100.00
57114;BME280;42994;51.606;9.988;2022-09-09T03:17:33;98549.03;;;12.40;100.00
57114;BME280;42994;51.606;9.988;2022-09-09T03:20:01;98554.41;;;12.40;100.00
57114;BME280;42994;51.606;9.988;2022-09-09T03:22:28;98555.78;;;12.49;100.00
57114;BME280;42994;51.606;9.988;2022-09-09T03:24:57;98554.59;;;12.45;100.00
57114;BME280;42994;51.606;9.988;2022-09-09T03:27:24;98560.38;;;12.42;100.00
57114;BME280;42994;51.606;9.988;2022-09-09T03:29:52;98568.22;;;12.44;100.00
57114;BME280;42994;51.606;9.988;2022-09-09T03:32:22;98555.78;;;12.49;100.00
57114;BME280;42994;51.606;9.988;2022-09-09T03:34:53;98559.09;;;12.52;100.00
57114;BME280;42994;51.606;9.988;2022-09-09T03:37:20;98564.44;;;12.58;100.00
57114;BME280;42994;51.606;9.988;2022-09-09T03:39:49;98564.00;;;12.61;100.00
57114;BME280;42994;51.606;9.988;2022-09-09T03:42:17;98556.56;;;12.63;100.00
57114;BME280;42994;51.606;9.988;2022-09-09T03:44:47;98557.38;;;12.64;100.00
57114;BME280;42994;51.606;9.988;2022-09-09T03:47:17;98554.84;;;12.69;100.00
57114;BME280;42994;51.606;9.988;2022-09-09T03:49:44;98552.75;;;12.78;100.00
57114;BME280;42994;51.606;9.988;2022-09-09T03:52:13;98543.00;;;12.77;100.00
57114;BME280;42994;51.606;9.988;2022-09-09T03:54:41;98548.19;;;12.78;100.00
57114;BME280;42994;51.606;9.988;2022-09-09T03:57:08;98541.59;;;12.74;100.00
57114;BME280;42994;51.606;9.988;2022-09-09T03:59:35;98542.81;;;12.78;100.00
57114;BME280;42994;51.606;9.988;2022-09-09T04:02:03;98543.63;;;12.79;100.00
57114;BME280;42994;51.606;9.988;2022-09-09T04:04:30;98539.50;;;12.76;100.00
57114;BME280;42994;51.606;9.988;2022-09-09T04:06:57;98538.50;;;12.71;100.00
57114;BME280;42994;51.606;9.988;2022-09-09T04:09:25;98537.06;;;12.68;100.00
57114;BME280;42994;51.606;9.988;2022-09-09T04:11:52;98542.44;;;12.68;100.00
57114;BME280;42994;51.606;9.988;2022-09-09T04:14:19;98530.66;;;12.69;100.00
57114;BME280;42994;51.606;9.988;2022-09-09T04:16:46;98537.34;;;12.60;100.00
57114;BME280;42994;51.606;9.988;2022-09-09T04:19:18;98540.97;;;12.34;100.00
57114;BME280;42994;51.606;9.988;2022-09-09T04:21:45;98546.34;;;12.34;100.00
57114;BME280;42994;51.606;9.988;2022-09-09T04:24:15;98553.00;;;12.31;100.00
57114;BME280;42994;51.606;9.988;2022-09-09T04:26:43;98548.44;;;12.31;100.00
57114;BME280;42994;51.606;9.988;2022-09-09T04:29:12;98553.00;;;12.31;100.00
57114;BME280;42994;51.606;9.988;2022-09-09T04:31:39;98554.94;;;12.10;100.00
57114;BME280;42994;51.606;9.988;2022-09-09T04:34:08;98554.69;;;12.19;100.00
57114;BME280;42994;51.606;9.988;2022-09-09T04:36:35;98557.56;;;12.24;100.00
57114;BME280;42994;51.606;9.988;2022-09-09T04:39:04;98562.94;;;12.24;100.00
57114;BME280;42994;51.606;9.988;2022-09-09T04:41:31;98554.47;;;12.27;100.00
57114;BME280;42994;51.606;9.988;2022-09-09T04:44:00;98550.59;;;12.16;100.00
57114;BME280;42994;51.606;9.988;2022-09-09T04:46:27;98550.53;;;12.23;100.00
57114;BME280;42994;51.606;9.988;2022-09-09T04:48:53;98550.84;;;12.01;100.00
57114;BME280;42994;51.606;9.988;2022-09-09T04:51:22;98558.06;;;12.07;100.00
57114;BME280;42994;51.606;9.988;2022-09-09T04:53:50;98565.50;;;12.05;100.00
57114;BME280;42994;51.606;9.988;2022-09-09T04:56:19;98565.25;;;12.14;100.00
57114;BME280;42994;51.606;9.988;2022-09-09T04:58:50;98570.63;;;12.14;100.00
57114;BME280;42994;51.606;9.988;2022-09-09T05:01:23;98561.63;;;11.74;100.00
57114;BME280;42994;51.606;9.988;2022-09-09T05:03:51;98564.31;;;11.81;100.00
57114;BME280;42994;51.606;9.988;2022-09-09T05:06:22;98569.88;;;11.93;100.00
57114;BME280;42994;51.606;9.988;2022-09-09T05:08:53;98579.41;;;11.76;100.00
57114;BME280;42994;51.606;9.988;2022-09-09T05:11:25;98579.59;;;11.94;100.00
57114;BME280;42994;51.606;9.988;2022-09-09T05:13:55;98574.78;;;12.03;100.00
57114;BME280;42994;51.606;9.988;2022-09-09T05:16:23;98581.38;;;12.14;100.00
57114;BME280;42994;51.606;9.988;2022-09-09T05:18:50;98584.84;;;12.21;100.00
57114;BME280;42994;51.606;9.988;2022-09-09T05:21:19;98578.28;;;12.17;100.00
57114;BME280;42994;51.606;9.988;2022-09-09T05:23:47;98582.44;;;12.13;100.00
57114;BME280;42994;51.606;9.988;2022-09-09T05:26:15;98588.22;;;12.09;100.00
57114;BME280;42994;51.606;9.988;2022-09-09T05:28:42;98581.59;;;12.12;100.00
57114;BME280;42994;51.606;9.988;2022-09-09T05:31:10;98595.03;;;12.12;100.00
57114;BME280;42994;51.606;9.988;2022-09-09T05:33:41;98588.00;;;12.04;100.00
57114;BME280;42994;51.606;9.988;2022-09-09T05:36:10;98587.19;;;12.04;100.00
57114;BME280;42994;51.606;9.988;2022-09-09T05:38:39;98586.19;;;12.05;100.00
57114;BME280;42994;51.606;9.988;2022-09-09T05:41:07;98593.44;;;11.98;100.00
57114;BME280;42994;51.606;9.988;2022-09-09T05:43:34;98594.84;;;12.00;100.00
57114;BME280;42994;51.606;9.988;2022-09-09T05:46:04;98590.13;;;11.96;100.00
57114;BME280;42994;51.606;9.988;2022-09-09T05:48:33;98598.75;;;12.04;100.00
57114;BME280;42994;51.606;9.988;2022-09-09T05:51:02;98600.44;;;12.05;100.00
57114;BME280;42994;51.606;9.988;2022-09-09T05:53:30;98596.47;;;12.08;100.00
57114;BME280;42994;51.606;9.988;2022-09-09T05:56:00;98585.53;;;12.03;100.00
57114;BME280;42994;51.606;9.988;2022-09-09T05:58:29;98597.94;;;11.97;100.00
57114;BME280;42994;51.606;9.988;2022-09-09T06:01:04;98590.72;;;12.04;100.00
57114;BME280;42994;51.606;9.988;2022-09-09T06:03:32;98592.34;;;12.12;100.00
57114;BME280;42994;51.606;9.988;2022-09-09T06:05:59;98596.88;;;12.18;100.00
57114;BME280;42994;51.606;9.988;2022-09-09T06:08:28;98600.16;;;12.20;100.00
57114;BME280;42994;51.606;9.988;2022-09-09T06:11:01;98607.97;;;12.35;100.00
57114;BME280;42994;51.606;9.988;2022-09-09T06:13:29;98602.56;;;12.42;100.00
57114;BME280;42994;51.606;9.988;2022-09-09T06:15:57;98608.75;;;12.49;100.00
57114;BME280;42994;51.606;9.988;2022-09-09T06:18:24;98602.91;;;12.52;100.00
57114;BME280;42994;51.606;9.988;2022-09-09T06:20:56;98610.13;;;12.65;100.00
57114;BME280;42994;51.606;9.988;2022-09-09T06:23:23;98612.75;;;12.72;100.00
57114;BME280;42994;51.606;9.988;2022-09-09T06:25:52;98616.72;;;12.69;100.00
57114;BME280;42994;51.606;9.988;2022-09-09T06:28:26;98608.56;;;12.82;100.00
57114;BME280;42994;51.606;9.988;2022-09-09T06:30:57;98619.63;;;12.99;100.00
57114;BME280;42994;51.606;9.988;2022-09-09T06:33:24;98603.09;;;12.96;100.00
57114;BME280;42994;51.606;9.988;2022-09-09T06:35:51;98601.78;;;13.05;100.00
57114;BME280;42994;51.606;9.988;2022-09-09T06:38:20;98595.03;;;13.21;100.00
57114;BME280;42994;51.606;9.988;2022-09-09T06:40:52;98597.31;;;13.31;100.00
57114;BME280;42994;51.606;9.988;2022-09-09T06:43:20;98601.38;;;13.40;100.00
57114;BME280;42994;51.606;9.988;2022-09-09T06:45:53;98590.56;;;13.65;100.00
57114;BME280;42994;51.606;9.988;2022-09-09T06:48:21;98582.72;;;13.63;100.00
57114;BME280;42994;51.606;9.988;2022-09-09T06:50:48;98582.34;;;13.78;100.00
57114;BME280;42994;51.606;9.988;2022-09-09T06:53:17;98581.31;;;13.98;100.00
57114;BME280;42994;51.606;9.988;2022-09-09T06:55:45;98567.00;;;14.16;100.00
57114;BME280;42994;51.606;9.988;2022-09-09T06:58:14;98565.81;;;14.12;100.00
57114;BME280;42994;51.606;9.988;2022-09-09T07:00:40;98569.56;;;14.29;100.00
57114;BME280;42994;51.606;9.988;2022-09-09T07:03:07;98570.41;;;14.41;100.00
57114;BME280;42994;51.606;9.988;2022-09-09T07:05:35;98560.75;;;14.52;100.00
57114;BME280;42994;51.606;9.988;2022-09-09T07:08:02;98559.16;;;14.63;100.00
57114;BME280;42994;51.606;9.988;2022-09-09T07:10:29;98558.66;;;14.85;100.00
57114;BME280;42994;51.606;9.988;2022-09-09T07:12:56;98564.06;;;14.85;100.00
57114;BME280;42994;51.606;9.988;2022-09-09T07:15:25;98556.09;;;14.90;100.00
57114;BME280;42994;51.606;9.988;2022-09-09T07:17:53;98563.75;;;15.05;100.00
57114;BME280;42994;51.606;9.988;2022-09-09T07:20:20;98572.09;;;15.15;100.00
57114;BME280;42994;51.606;9.988;2022-09-09T07:22:47;98567.41;;;15.22;100.00
57114;BME280;42994;51.606;9.988;2022-09-09T07:25:14;98570.03;;;15.41;100.00
57114;BME280;42994;51.606;9.988;2022-09-09T07:27:43;98599.97;;;15.39;100.00
57114;BME280;42994;51.606;9.988;2022-09-09T07:30:11;98598.06;;;15.51;100.00
57114;BME280;42994;51.606;9.988;2022-09-09T07:32:39;98598.34;;;15.62;100.00
57114;BME280;42994;51.606;9.988;2022-09-09T07:35:06;98601.63;;;15.64;100.00
57114;BME280;42994;51.606;9.988;2022-09-09T07:37:36;98608.59;;;15.83;100.00
57114;BME280;42994;51.606;9.988;2022-09-09T07:40:03;98609.53;;;15.89;100.00
57114;BME280;42994;51.606;9.988;2022-09-09T07:42:30;98609.88;;;15.81;100.00
57114;BME280;42994;51.606;9.988;2022-09-09T07:44:57;98608.59;;;15.83;100.00
57114;BME280;42994;51.606;9.988;2022-09-09T07:47:25;98610.34;;;16.01;100.00
57114;BME280;42994;51.606;9.988;2022-09-09T07:49:54;98633.47;;;16.21;100.00
57114;BME280;42994;51.606;9.988;2022-09-09T07:52:25;98623.72;;;16.08;100.00
57114;BME280;42994;51.606;9.988;2022-09-09T07:54:56;98621.25;;;16.18;100.00
57114;BME280;42994;51.606;9.988;2022-09-09T07:57:23;98624.25;;;16.33;100.00
57114;BME280;42994;51.606;9.988;2022-09-09T07:59:51;98622.94;;;16.48;100.00
57114;BME280;42994;51.606;9.988;2022-09-09T08:02:18;98626.84;;;16.40;100.00
57114;BME280;42994;51.606;9.988;2022-09-09T08:04:45;98635.34;;;16.32;100.00
57114;BME280;42994;51.606;9.988;2022-09-09T08:07:14;98630.41;;;16.29;100.00
57114;BME280;42994;51.606;9.988;2022-09-09T08:09:47;98638.50;;;16.17;100.00
57114;BME280;42994;51.606;9.988;2022-09-09T08:12:20;98639.81;;;16.26;100.00
57114;BME280;42994;51.606;9.988;2022-09-09T08:14:46;98645.44;;;16.37;100.00
57114;BME280;42994;51.606;9.988;2022-09-09T08:17:14;98635.44;;;16.37;100.00
57114;BME280;42994;51.606;9.988;2022-09-09T08:19:42;98634.59;;;16.37;100.00
57114;BME280;42994;51.606;9.988;2022-09-09T08:22:15;98643.47;;;16.72;100.00
57114;BME280;42994;51.606;9.988;2022-09-09T08:24:42;98639.31;;;16.82;100.00
57114;BME280;42994;51.606;9.988;2022-09-09T08:27:09;98640.59;;;16.91;100.00
57114;BME280;42994;51.606;9.988;2022-09-09T08:29:36;98648.38;;;17.33;100.00
57114;BME280;42994;51.606;9.988;2022-09-09T08:32:04;98641.72;;;17.24;100.00
57114;BME280;42994;51.606;9.988;2022-09-09T08:34:31;98633.19;;;17.32;100.00
57114;BME280;42994;51.606;9.988;2022-09-09T08:37:02;98627.31;;;17.06;100.00
57114;BME280;42994;51.606;9.988;2022-09-09T08:39:38;98664.72;;;17.38;100.00
57114;BME280;42994;51.606;9.988;2022-09-09T08:42:30;98670.66;;;17.69;100.00
57114;BME280;42994;51.606;9.988;2022-09-09T08:45:27;98675.19;;;17.80;100.00
57114;BME280;42994;51.606;9.988;2022-09-09T08:48:22;98675.44;;;17.79;100.00
57114;BME280;42994;51.606;9.988;2022-09-09T08:50:55;98675.09;;;17.41;100.00
57114;BME280;42994;51.606;9.988;2022-09-09T08:53:29;98677.19;;;17.39;100.00
57114;BME280;42994;51.606;9.988;2022-09-09T08:56:06;98679.56;;;17.36;100.00
57114;BME280;42994;51.606;9.988;2022-09-09T08:58:55;98679.72;;;17.58;100.00
57114;BME280;42994;51.606;9.988;2022-09-09T09:01:41;98681.91;;;17.61;100.00
57114;BME280;42994;51.606;9.988;2022-09-09T09:04:33;98690.53;;;17.58;100.00
57114;BME280;42994;51.606;9.988;2022-09-09T09:07:12;98686.16;;;17.40;100.00
57114;BME280;42994;51.606;9.988;2022-09-09T09:09:47;98694.44;;;17.33;100.00
57114;BME280;42994;51.606;9.988;2022-09-09T09:12:26;98696.91;;;17.35;100.00
57114;BME280;42994;51.606;9.988;2022-09-09T09:14:55;98692.16;;;17.59;100.00
57114;BME280;42994;51.606;9.988;2022-09-09T09:17:26;98718.13;;;17.55;100.00
57114;BME280;42994;51.606;9.988;2022-09-09T09:19:59;98588.25;;;18.04;100.00
57114;BME280;42994;51.606;9.988;2022-09-09T09:22:30;98602.16;;;17.91;100.00
57114;BME280;42994;51.606;9.988;2022-09-09T09:25:10;98595.19;;;17.61;100.00
57114;BME280;42994;51.606;9.988;2022-09-09T09:27:49;98596.66;;;17.68;100.00
57114;BME280;42994;51.606;9.988;2022-09-09T09:30:23;98601.31;;;17.90;100.00
57114;BME280;42994;51.606;9.988;2022-09-09T09:32:54;98602.34;;;17.67;100.00
57114;BME280;42994;51.606;9.988;2022-09-09T09:35:22;98595.09;;;17.56;100.00
57114;BME280;42994;51.606;9.988;2022-09-09T09:37:49;98604.41;;;17.60;100.00
57114;BME280;42994;51.606;9.988;2022-09-09T09:40:18;98599.19;;;17.75;100.00
57114;BME280;42994;51.606;9.988;2022-09-09T09:42:51;98647.16;;;18.09;100.00
57114;BME280;42994;51.606;9.988;2022-09-09T09:45:23;98622.22;;;17.90;100.00
57114;BME280;42994;51.606;9.988;2022-09-09T09:47:59;98629.09;;;17.97;100.00
57114;BME280;42994;51.606;9.988;2022-09-09T09:50:28;98627.19;;;18.15;100.00
57114;BME280;42994;51.606;9.988;2022-09-09T09:52:56;98634.56;;;18.41;100.00
57114;BME280;42994;51.606;9.988;2022-09-09T09:55:25;98635.63;;;18.18;100.00
57114;BME280;42994;51.606;9.988;2022-09-09T09:57:54;98640.63;;;17.88;100.00
57114;BME280;42994;51.606;9.988;2022-09-09T10:00:27;98638.97;;;17.86;100.00
57114;BME280;42994;51.606;9.988;2022-09-09T10:03:01;98646.25;;;18.03;100.00
57114;BME280;42994;51.606;9.988;2022-09-09T10:05:45;98640.75;;;18.37;100.00
57114;BME280;42994;51.606;9.988;2022-09-09T10:08:14;98639.81;;;18.48;100.00
57114;BME280;42994;51.606;9.988;2022-09-09T10:11:02;98637.78;;;18.16;100.00
57114;BME280;42994;51.606;9.988;2022-09-09T10:13:42;98647.06;;;18.20;100.00
57114;BME280;42994;51.606;9.988;2022-09-09T10:16:21;98650.97;;;18.30;100.00
57114;BME280;42994;51.606;9.988;2022-09-09T10:19:04;98648.75;;;18.27;100.00
57114;BME280;42994;51.606;9.988;2022-09-09T10:24:51;98643.00;;;18.23;100.00
57114;BME280;42994;51.606;9.988;2022-09-09T10:27:29;98642.75;;;18.24;100.00
57114;BME280;42994;51.606;9.988;2022-09-09T10:30:06;98655.59;;;18.73;100.00
57114;BME280;42994;51.606;9.988;2022-09-09T10:32:39;98643.34;;;18.71;100.00
57114;BME280;42994;51.606;9.988;2022-09-09T10:35:14;98652.81;;;18.68;100.00
57114;BME280;42994;51.606;9.988;2022-09-09T10:37:57;98645.03;;;18.99;100.00
57114;BME280;42994;51.606;9.988;2022-09-09T10:40:32;98644.78;;;18.78;100.00
57114;BME280;42994;51.606;9.988;2022-09-09T10:43:07;98643.50;;;18.81;100.00
57114;BME280;42994;51.606;9.988;2022-09-09T10:45:48;98637.34;;;18.69;100.00
57114;BME280;42994;51.606;9.988;2022-09-09T10:48:31;98645.28;;;19.25;100.00
57114;BME280;42994;51.606;9.988;2022-09-09T10:51:21;98644.16;;;19.48;96.71
57114;BME280;42994;51.606;9.988;2022-09-09T10:53:57;98651.00;;;19.55;95.28
57114;BME280;42994;51.606;9.988;2022-09-09T10:56:30;98638.13;;;19.40;92.06
57114;BME280;42994;51.606;9.988;2022-09-09T10:59:00;98633.13;;;19.32;92.14
57114;BME280;42994;51.606;9.988;2022-09-09T11:01:32;98639.97;;;19.72;93.04
57114;BME280;42994;51.606;9.988;2022-09-09T11:04:08;98633.53;;;19.78;88.57
57114;BME280;42994;51.606;9.988;2022-09-09T11:06:40;98628.53;;;20.03;87.58
57114;BME280;42994;51.606;9.988;2022-09-09T11:09:15;98638.63;;;20.07;87.88
57114;BME280;42994;51.606;9.988;2022-09-09T11:11:49;98633.72;;;20.04;89.75
57114;BME280;42994;51.606;9.988;2022-09-09T11:14:22;98639.59;;;19.91;89.11
57114;BME280;42994;51.606;9.988;2022-09-09T11:16:57;98629.03;;;19.62;87.22
57114;BME280;42994;51.606;9.988;2022-09-09T11:19:30;98636.72;;;19.70;92.33
57114;BME280;42994;51.606;9.988;2022-09-09T11:22:02;98628.31;;;19.39;88.42
57114;BME280;42994;51.606;9.988;2022-09-09T11:24:34;98630.66;;;19.63;90.16
57114;BME280;42994;51.606;9.988;2022-09-09T11:27:06;98637.78;;;19.69;88.54
57114;BME280;42994;51.606;9.988;2022-09-09T11:33:12;98632.34;;;19.69;89.06
57114;BME280;42994;51.606;9.988;2022-09-09T11:38:46;98639.44;;;19.70;87.83
57114;BME280;42994;51.606;9.988;2022-09-09T11:41:14;98640.66;;;19.52;90.70
57114;BME280;42994;51.606;9.988;2022-09-09T11:43:43;98632.03;;;19.28;86.05
57114;BME280;42994;51.606;9.988;2022-09-09T11:46:11;98639.06;;;19.29;88.32
57114;BME280;42994;51.606;9.988;2022-09-09T11:48:42;98637.25;;;19.35;89.33
57114;BME280;42994;51.606;9.988;2022-09-09T11:51:12;98630.22;;;19.39;89.89
57114;BME280;42994;51.606;9.988;2022-09-09T11:53:50;98630.50;;;19.43;89.11
57114;BME280;42994;51.606;9.988;2022-09-09T11:56:26;98632.19;;;19.49;90.42
57114;BME280;42994;51.606;9.988;2022-09-09T11:58:56;98629.56;;;19.59;91.92
57114;BME280;42994;51.606;9.988;2022-09-09T12:01:42;98615.88;;;19.49;88.39
57114;BME280;42994;51.606;9.988;2022-09-09T12:04:29;98621.75;;;19.35;84.40
57114;BME280;42994;51.606;9.988;2022-09-09T12:07:00;98622.66;;;19.46;87.45
57114;BME280;42994;51.606;9.988;2022-09-09T12:09:38;98627.06;;;19.52;87.08
57114;BME280;42994;51.606;9.988;2022-09-09T12:12:28;98627.31;;;19.51;81.40
57114;BME280;42994;51.606;9.988;2022-09-09T12:14:58;98626.19;;;19.47;83.96
57114;BME280;42994;51.606;9.988;2022-09-09T12:17:26;98636.59;;;19.55;82.06
57114;BME280;42994;51.606;9.988;2022-09-09T12:20:06;98631.94;;;19.50;79.55
57114;BME280;42994;51.606;9.988;2022-09-09T12:22:36;98632.84;;;19.61;74.78
57114;BME280;42994;51.606;9.988;2022-09-09T12:25:16;98637.59;;;19.76;72.35
57114;BME280;42994;51.606;9.988;2022-09-09T12:27:55;98633.97;;;20.08;70.85
57114;BME280;42994;51.606;9.988;2022-09-09T12:30:29;98632.03;;;19.98;71.06
57114;BME280;42994;51.606;9.988;2022-09-09T12:33:01;98635.50;;;19.88;73.08
57114;BME280;42994;51.606;9.988;2022-09-09T12:35:31;98633.13;;;19.97;73.10
57114;BME280;42994;51.606;9.988;2022-09-09T12:37:58;98641.59;;;20.01;75.01
57114;BME280;42994;51.606;9.988;2022-09-09T12:40:28;98648.38;;;20.03;72.15
57114;BME280;42994;51.606;9.988;2022-09-09T12:42:56;98639.31;;;20.35;76.24
57114;BME280;42994;51.606;9.988;2022-09-09T12:45:25;98624.81;;;20.24;74.89
57114;BME280;42994;51.606;9.988;2022-09-09T12:47:54;98623.09;;;20.61;70.42
57114;BME280;42994;51.606;9.988;2022-09-09T12:50:24;98627.91;;;20.38;63.91
57114;BME280;42994;51.606;9.988;2022-09-09T12:52:54;98634.66;;;20.30;63.98
57114;BME280;42994;51.606;9.988;2022-09-09T12:55:27;98608.44;;;20.09;70.05
57114;BME280;42994;51.606;9.988;2022-09-09T12:57:56;98622.53;;;20.01;72.00
57114;BME280;42994;51.606;9.988;2022-09-09T13:00:25;98622.81;;;19.99;70.81
57114;BME280;42994;51.606;9.988;2022-09-09T13:02:54;98623.31;;;19.64;72.35
57114;BME280;42994;51.606;9.988;2022-09-09T13:05:23;98614.31;;;19.58;72.61
57114;BME280;42994;51.606;9.988;2022-09-09T13:07:50;98614.31;;;19.58;75.83
57114;BME280;42994;51.606;9.988;2022-09-09T13:10:24;98634.16;;;19.58;77.44
57114;BME280;42994;51.606;9.988;2022-09-09T13:12:52;98645.31;;;19.57;82.01
57114;BME280;42994;51.606;9.988;2022-09-09T13:15:22;98638.50;;;19.27;82.30
57114;BME280;42994;51.606;9.988;2022-09-09T13:17:53;98637.03;;;19.14;83.99
57114;BME280;42994;51.606;9.988;2022-09-09T13:20:21;98642.69;;;19.08;81.52
57114;BME280;42994;51.606;9.988;2022-09-09T13:22:49;98636.47;;;19.12;78.14
57114;BME280;42994;51.606;9.988;2022-09-09T13:25:22;98620.69;;;19.09;73.26
57114;BME280;42994;51.606;9.988;2022-09-09T13:27:53;98622.22;;;19.00;78.50
57114;BME280;42994;51.606;9.988;2022-09-09T13:30:22;98618.94;;;18.98;77.80